createdAt,value
2022-12-03T00:01:20.383Z,8.45
2022-12-03T00:03:48.277Z,7.47
2022-12-03T00:06:16.289Z,6.53
2022-12-03T00:08:44.115Z,7.95
2022-12-03T00:11:11.945Z,7.10
2022-12-03T00:13:39.881Z,7.70
2022-12-03T00:16:09.251Z,8.15
2022-12-03T00:18:37.129Z,6.82
2022-12-03T00:21:05.121Z,7.63
2022-12-03T00:23:35.970Z,5.95
2022-12-03T00:26:08.137Z,8.05
2022-12-03T00:28:35.929Z,7.45
2022-12-03T00:31:03.850Z,7.75
2022-12-03T00:33:33.090Z,7.65
2022-12-03T00:36:01.146Z,7.05
2022-12-03T00:38:28.965Z,7.97
2022-12-03T00:40:56.880Z,7.38
2022-12-03T00:43:24.714Z,7.13
2022-12-03T00:45:53.052Z,6.57
2022-12-03T00:48:20.939Z,8.02
2022-12-03T00:50:50.128Z,7.32
2022-12-03T00:53:18.588Z,9.15
2022-12-03T00:55:46.426Z,7.88
2022-12-03T00:58:14.235Z,7.45
2022-12-03T01:00:42.092Z,8.00
2022-12-03T01:03:09.898Z,9.07
2022-12-03T01:05:37.816Z,8.25
2022-12-03T01:08:07.214Z,8.15
2022-12-03T01:10:35.167Z,8.13
2022-12-03T01:13:03.024Z,7.80
2022-12-03T01:15:30.917Z,8.93
2022-12-03T01:17:58.771Z,8.98
2022-12-03T01:20:26.603Z,8.85
2022-12-03T01:22:54.802Z,8.80
2022-12-03T01:25:24.048Z,7.45
2022-12-03T01:27:51.896Z,8.57
2022-12-03T01:30:19.891Z,9.18
2022-12-03T01:32:46.702Z,8.35
2022-12-03T01:35:14.533Z,8.50
2022-12-03T01:37:42.319Z,7.65
2022-12-03T01:40:13.707Z,8.73
2022-12-03T01:42:43.417Z,7.72
2022-12-03T01:45:13.063Z,8.70
2022-12-03T01:47:41.302Z,7.35
2022-12-03T01:50:15.305Z,7.38
2022-12-03T01:52:43.375Z,7.97
2022-12-03T01:55:15.521Z,8.43
2022-12-03T01:57:47.163Z,8.27
2022-12-03T02:00:16.447Z,8.98
2022-12-03T02:02:45.347Z,7.50
2022-12-03T02:05:18.853Z,8.15
2022-12-03T02:07:47.117Z,7.93
2022-12-03T02:10:16.804Z,8.32
2022-12-03T02:12:50.318Z,8.98
2022-12-03T02:15:18.304Z,8.40
2022-12-03T02:17:46.218Z,8.35
2022-12-03T02:20:15.565Z,7.28
2022-12-03T02:22:48.550Z,8.63
2022-12-03T02:27:46.875Z,7.22
2022-12-03T02:30:17.514Z,8.65
2022-12-03T02:32:45.566Z,5.93
2022-12-03T02:35:17.558Z,8.15
2022-12-03T02:37:46.563Z,7.83
2022-12-03T02:40:18.969Z,7.63
2022-12-03T02:42:47.161Z,8.43
2022-12-03T02:45:17.462Z,7.72
2022-12-03T02:47:46.735Z,7.60
2022-12-03T02:50:17.462Z,7.43
2022-12-03T02:52:46.388Z,8.02
2022-12-03T02:55:15.649Z,7.00
2022-12-03T02:57:46.334Z,6.38
2022-12-03T03:00:15.978Z,8.82
2022-12-03T03:02:44.564Z,8.02
2022-12-03T03:05:13.325Z,8.13
2022-12-03T03:07:41.907Z,8.07
2022-12-03T03:10:13.086Z,7.88
2022-12-03T03:12:41.197Z,8.85
2022-12-03T03:15:11.581Z,8.60
2022-12-03T03:17:39.769Z,8.77
2022-12-03T03:20:10.081Z,8.57
2022-12-03T03:22:39.944Z,7.25
2022-12-03T03:25:09.860Z,7.97
2022-12-03T03:27:38.246Z,8.57
2022-12-03T03:30:08.070Z,7.97
2022-12-03T03:32:39.657Z,8.43
2022-12-03T03:35:08.228Z,7.72
2022-12-03T03:37:36.154Z,7.25
2022-12-03T03:40:04.670Z,8.38
2022-12-03T03:42:32.678Z,7.97
2022-12-03T03:45:00.669Z,7.78
2022-12-03T03:47:28.802Z,7.30
2022-12-03T03:49:58.044Z,7.47
2022-12-03T03:52:25.967Z,8.90
2022-12-03T03:54:54.115Z,8.70
2022-12-03T03:57:22.134Z,8.77
2022-12-03T03:59:49.933Z,8.90
2022-12-03T04:02:20.589Z,8.35
2022-12-03T04:04:49.233Z,8.90
2022-12-03T04:07:18.861Z,9.18
2022-12-03T04:09:46.736Z,8.90
2022-12-03T04:12:32.141Z,8.93
2022-12-03T04:15:00.425Z,9.05
2022-12-03T04:17:28.277Z,8.38
2022-12-03T04:19:56.193Z,8.65
2022-12-03T04:22:39.893Z,9.02
2022-12-03T04:25:26.910Z,7.60
2022-12-03T04:28:21.188Z,8.38
2022-12-03T04:30:49.139Z,8.38
2022-12-03T04:33:34.429Z,8.52
2022-12-03T04:36:02.355Z,8.38
2022-12-03T04:38:31.672Z,8.68
2022-12-03T04:41:03.830Z,8.50
2022-12-03T04:43:33.455Z,9.90
2022-12-03T04:46:02.258Z,8.60
2022-12-03T04:48:30.915Z,7.75
2022-12-03T04:50:58.849Z,9.07
2022-12-03T04:53:26.799Z,8.90
2022-12-03T04:55:56.063Z,8.90
2022-12-03T04:58:23.945Z,8.43
2022-12-03T05:00:52.484Z,9.00
2022-12-03T05:03:20.389Z,8.25
2022-12-03T05:05:48.213Z,8.70
2022-12-03T05:08:16.145Z,9.00
2022-12-03T05:10:44.061Z,8.10
2022-12-03T05:13:13.272Z,8.38
2022-12-03T05:15:41.085Z,7.25
2022-12-03T05:18:08.952Z,8.35
2022-12-03T05:20:45.692Z,9.00
2022-12-03T05:23:17.602Z,8.60
2022-12-03T05:25:45.411Z,8.32
2022-12-03T05:28:14.643Z,8.07
2022-12-03T05:30:42.526Z,6.90
2022-12-03T05:33:10.407Z,8.75
2022-12-03T05:35:38.217Z,7.85
2022-12-03T05:38:06.057Z,7.78
2022-12-03T05:40:33.973Z,8.55
2022-12-03T05:43:01.688Z,7.43
2022-12-03T05:45:32.954Z,7.75
2022-12-03T05:48:02.000Z,9.15
2022-12-03T05:50:31.804Z,7.10
2022-12-03T05:53:00.201Z,8.05
2022-12-03T05:55:28.287Z,8.80
2022-12-03T05:57:56.361Z,7.78
2022-12-03T06:00:25.730Z,7.15
2022-12-03T06:02:55.288Z,7.63
2022-12-03T06:05:23.980Z,7.82
2022-12-03T06:07:53.488Z,8.52
2022-12-03T06:10:23.166Z,7.28
2022-12-03T06:12:51.166Z,8.32
2022-12-03T06:15:19.370Z,8.45
2022-12-03T06:17:47.328Z,7.32
2022-12-03T06:20:18.306Z,8.13
2022-12-03T06:22:46.384Z,8.90
2022-12-03T06:25:15.022Z,8.73
2022-12-03T06:27:43.376Z,8.88
2022-12-03T06:30:13.724Z,7.68
2022-12-03T06:32:41.867Z,8.63
2022-12-03T06:35:10.349Z,8.60
2022-12-03T06:37:39.722Z,7.75
2022-12-03T06:40:09.048Z,8.15
2022-12-03T06:42:37.033Z,7.75
2022-12-03T06:45:05.508Z,7.38
2022-12-03T06:47:33.391Z,6.50
2022-12-03T06:50:01.242Z,8.45
2022-12-03T06:52:29.130Z,8.68
2022-12-03T06:54:58.456Z,8.10
2022-12-03T06:57:26.325Z,9.43
2022-12-03T06:59:54.467Z,9.07
2022-12-03T07:02:22.976Z,8.73
2022-12-03T07:04:51.104Z,8.23
2022-12-03T07:07:19.094Z,8.93
2022-12-03T07:09:46.987Z,8.60
2022-12-03T07:12:16.273Z,8.13
2022-12-03T07:14:44.124Z,8.63
2022-12-03T07:17:12.116Z,8.73
2022-12-03T07:19:40.602Z,9.35
2022-12-03T07:22:08.490Z,9.27
2022-12-03T07:24:36.487Z,8.90
2022-12-03T07:27:04.494Z,8.55
2022-12-03T07:29:33.762Z,7.75
2022-12-03T07:32:01.591Z,8.30
2022-12-03T07:34:29.450Z,8.73
2022-12-03T07:36:57.436Z,8.30
2022-12-03T07:39:25.396Z,9.55
2022-12-03T07:41:53.265Z,7.35
2022-12-03T07:44:21.102Z,8.40
2022-12-03T07:46:50.492Z,8.55
2022-12-03T07:49:18.350Z,8.00
2022-12-03T07:51:53.679Z,8.30
2022-12-03T07:54:21.775Z,9.35
2022-12-03T07:56:49.571Z,8.45
2022-12-03T07:59:17.992Z,8.77
2022-12-03T08:01:45.939Z,9.05
2022-12-03T08:04:18.234Z,9.15
2022-12-03T08:06:46.541Z,8.07
2022-12-03T08:09:16.220Z,7.20
2022-12-03T08:11:45.805Z,8.68
2022-12-03T08:14:14.967Z,8.48
2022-12-03T08:16:44.363Z,9.55
2022-12-03T08:19:13.325Z,9.27
2022-12-03T08:21:42.961Z,8.85
2022-12-03T08:24:15.591Z,9.00
2022-12-03T08:26:44.936Z,7.28
2022-12-03T08:29:14.458Z,8.07
2022-12-03T08:31:42.657Z,8.00
2022-12-03T08:34:18.989Z,8.93
2022-12-03T08:36:49.779Z,9.07
2022-12-03T08:39:33.254Z,7.22
2022-12-03T08:42:27.211Z,9.88
2022-12-03T08:44:56.189Z,8.80
2022-12-03T08:47:25.140Z,8.40
2022-12-03T08:49:55.954Z,8.38
2022-12-03T08:52:32.159Z,8.40
2022-12-03T08:55:00.793Z,8.35
2022-12-03T08:57:30.583Z,8.32
2022-12-03T09:00:01.608Z,7.50
2022-12-03T09:02:33.225Z,7.97
2022-12-03T09:05:12.084Z,8.13
2022-12-03T09:07:41.359Z,8.00
2022-12-03T09:10:10.172Z,8.60
2022-12-03T09:12:38.162Z,8.52
2022-12-03T09:15:06.753Z,9.02
2022-12-03T09:17:34.952Z,7.43
2022-12-03T09:20:03.132Z,7.72
2022-12-03T09:22:31.008Z,7.68
2022-12-03T09:25:00.328Z,7.10
2022-12-03T09:27:28.222Z,6.93
2022-12-03T09:29:56.067Z,8.57
2022-12-03T09:32:24.062Z,8.32
2022-12-03T09:34:52.258Z,8.02
2022-12-03T09:37:21.439Z,7.75
2022-12-03T09:39:49.402Z,7.65
2022-12-03T09:42:18.864Z,7.45
2022-12-03T09:44:46.786Z,8.35
2022-12-03T09:47:14.804Z,8.07
2022-12-03T09:49:42.907Z,8.60
2022-12-03T09:52:23.577Z,7.70
2022-12-03T09:54:53.340Z,8.63
2022-12-03T09:57:22.855Z,8.38
2022-12-03T09:59:50.889Z,8.27
2022-12-03T10:02:22.162Z,7.05
2022-12-03T10:04:50.494Z,9.18
2022-12-03T10:07:18.476Z,7.72
2022-12-03T10:09:46.354Z,9.20
2022-12-03T10:12:15.384Z,7.88
2022-12-03T10:14:44.676Z,8.70
2022-12-03T10:17:13.340Z,8.25
2022-12-03T10:19:42.699Z,8.65
2022-12-03T10:22:10.640Z,8.20
2022-12-03T10:24:39.544Z,9.02
2022-12-03T10:27:22.259Z,9.10
2022-12-03T10:30:02.734Z,9.82
2022-12-03T10:32:41.819Z,8.57
2022-12-03T10:35:12.427Z,8.85
2022-12-03T10:37:57.862Z,9.23
2022-12-03T10:40:27.095Z,8.60
2022-12-03T10:43:13.956Z,9.25
2022-12-03T10:45:43.615Z,8.88
2022-12-03T10:48:14.342Z,8.32
2022-12-03T10:50:50.887Z,8.10
2022-12-03T10:53:19.484Z,9.20
2022-12-03T10:55:48.335Z,8.02
2022-12-03T10:58:21.960Z,9.68
2022-12-03T11:00:52.491Z,8.77
2022-12-03T11:03:25.826Z,9.32
2022-12-03T11:05:55.171Z,8.65
2022-12-03T11:08:24.721Z,8.18
2022-12-03T11:11:00.338Z,8.98
2022-12-03T11:13:38.952Z,9.00
2022-12-03T11:16:08.692Z,9.45
2022-12-03T11:18:59.247Z,9.35
2022-12-03T11:21:27.160Z,8.98
2022-12-03T11:24:28.359Z,9.05
2022-12-03T11:27:18.884Z,9.25
2022-12-03T11:29:57.640Z,8.68
2022-12-03T11:33:08.475Z,7.97
2022-12-03T11:36:02.419Z,9.93
2022-12-03T11:38:52.339Z,9.18
2022-12-03T11:41:22.879Z,8.57
2022-12-03T11:44:19.835Z,9.15
2022-12-03T11:46:48.208Z,9.57
2022-12-03T11:49:39.888Z,9.18
2022-12-03T11:52:24.384Z,9.38
2022-12-03T11:54:55.261Z,10.02
2022-12-03T11:57:27.983Z,8.27
2022-12-03T12:00:05.883Z,8.48
2022-12-03T12:02:39.945Z,8.63
2022-12-03T12:05:22.919Z,8.85
2022-12-03T12:07:52.930Z,9.63
2022-12-03T12:10:41.486Z,9.55
2022-12-03T12:13:27.761Z,8.15
2022-12-03T12:15:56.107Z,7.78
2022-12-03T12:18:38.290Z,7.88
2022-12-03T12:21:41.043Z,9.05
2022-12-03T12:24:38.252Z,8.07
2022-12-03T12:27:07.933Z,8.68
2022-12-03T12:29:37.201Z,7.78
2022-12-03T12:32:15.113Z,9.65
2022-12-03T12:34:44.970Z,7.75
2022-12-03T12:37:15.582Z,7.20
2022-12-03T12:39:45.077Z,9.27
2022-12-03T12:42:28.618Z,8.23
2022-12-03T12:45:00.208Z,7.78
2022-12-03T12:47:31.116Z,7.45
2022-12-03T12:49:59.722Z,6.75
2022-12-03T12:52:28.677Z,6.63
2022-12-03T12:55:03.077Z,8.60
2022-12-03T12:57:33.320Z,7.00
2022-12-03T13:00:01.198Z,5.93
2022-12-03T13:02:40.939Z,8.00
2022-12-03T13:05:14.000Z,7.95
2022-12-03T13:07:44.162Z,7.95
2022-12-03T13:10:41.908Z,8.00
2022-12-03T13:13:24.715Z,6.40
2022-12-03T13:15:58.680Z,5.72
2022-12-03T13:18:29.659Z,6.97
2022-12-03T13:20:57.689Z,7.10
2022-12-03T13:23:32.481Z,7.03
2022-12-03T13:26:22.312Z,8.75
2022-12-03T13:28:52.933Z,9.32
2022-12-03T13:31:26.837Z,6.80
2022-12-03T13:33:56.933Z,7.38
2022-12-03T13:36:31.442Z,8.18
2022-12-03T13:38:59.822Z,6.65
2022-12-03T13:42:01.341Z,7.97
2022-12-03T13:44:31.556Z,8.23
2022-12-03T13:47:02.007Z,7.95
2022-12-03T13:49:30.374Z,9.00
2022-12-03T13:51:58.208Z,8.02
2022-12-03T13:54:28.190Z,9.13
2022-12-03T13:56:57.886Z,8.88
2022-12-03T13:59:26.489Z,8.18
2022-12-03T14:01:54.526Z,8.15
2022-12-03T14:04:22.407Z,10.43
2022-12-03T14:06:50.359Z,8.73
2022-12-03T14:09:18.401Z,10.55
2022-12-03T14:12:03.749Z,8.75
2022-12-03T14:14:33.048Z,9.00
2022-12-03T14:17:01.015Z,8.52
2022-12-03T14:19:29.030Z,10.32
2022-12-03T14:21:57.060Z,9.27
2022-12-03T14:24:25.107Z,9.65
2022-12-03T14:26:53.006Z,9.15
2022-12-03T14:29:21.029Z,9.38
2022-12-03T14:31:50.248Z,9.68
2022-12-03T14:34:18.199Z,9.48
2022-12-03T14:36:46.064Z,9.55
2022-12-03T14:39:13.948Z,11.32
2022-12-03T14:42:07.666Z,10.35
2022-12-03T14:44:35.732Z,10.45
2022-12-03T14:47:05.088Z,10.93
2022-12-03T14:49:33.005Z,11.00
2022-12-03T14:52:00.904Z,11.00
2022-12-03T14:54:28.827Z,11.02
2022-12-03T14:56:56.701Z,10.85
2022-12-03T14:59:27.827Z,10.88
2022-12-03T15:01:56.416Z,13.43
2022-12-03T15:04:25.989Z,10.07
2022-12-03T15:06:53.873Z,10.82
2022-12-03T15:09:21.895Z,12.95
2022-12-03T15:11:50.014Z,12.88
2022-12-03T15:14:18.031Z,13.38
2022-12-03T15:16:46.126Z,14.15
2022-12-03T15:19:15.562Z,12.57
2022-12-03T15:21:45.281Z,12.02
2022-12-03T15:24:13.344Z,15.90
2022-12-03T15:26:41.219Z,15.00
2022-12-03T15:29:09.278Z,16.20
2022-12-03T15:31:37.282Z,13.82
2022-12-03T15:34:05.181Z,12.82
2022-12-03T15:36:33.069Z,15.55
2022-12-03T15:39:02.393Z,16.13
2022-12-03T15:41:30.754Z,15.23
2022-12-03T15:43:59.990Z,16.38
2022-12-03T15:46:28.430Z,14.07
2022-12-03T15:48:56.567Z,17.30
2022-12-03T15:54:08.605Z,12.95
2022-12-03T15:56:37.683Z,16.40
2022-12-03T15:59:05.669Z,15.60
2022-12-03T16:01:33.766Z,14.35
2022-12-03T16:04:01.769Z,14.27
2022-12-03T16:06:29.588Z,16.02
2022-12-03T16:08:57.421Z,13.65
2022-12-03T16:11:26.679Z,13.52
2022-12-03T16:13:54.647Z,13.73
2022-12-03T16:16:22.623Z,13.40
2022-12-03T16:18:50.520Z,13.18
2022-12-03T16:21:22.046Z,14.07
2022-12-03T16:23:54.318Z,14.43
2022-12-03T16:26:22.189Z,14.50
2022-12-03T16:28:51.420Z,13.85
2022-12-03T16:31:19.993Z,14.20
2022-12-03T16:33:48.371Z,13.57
2022-12-03T16:36:16.276Z,14.10
2022-12-03T16:38:44.168Z,15.20
2022-12-03T16:41:12.028Z,14.45
2022-12-03T16:43:39.907Z,12.10
2022-12-03T16:46:25.542Z,14.48
2022-12-03T16:48:55.203Z,13.90
2022-12-03T16:51:23.138Z,11.00
2022-12-03T16:53:50.981Z,14.05
2022-12-03T16:56:18.880Z,15.23
2022-12-03T16:58:46.707Z,13.38
2022-12-03T17:01:15.973Z,14.73
2022-12-03T17:03:43.820Z,13.70
2022-12-03T17:06:11.661Z,14.85
2022-12-03T17:08:41.063Z,14.07
2022-12-03T17:11:12.498Z,13.20
2022-12-03T17:13:40.450Z,13.63
2022-12-03T17:16:08.457Z,14.25
2022-12-03T17:18:38.078Z,11.68
2022-12-03T17:21:06.968Z,12.27
2022-12-03T17:23:34.841Z,13.10
2022-12-03T17:26:02.696Z,13.32
2022-12-03T17:28:30.625Z,9.93
2022-12-03T17:30:58.644Z,11.00
2022-12-03T17:33:26.538Z,13.77
2022-12-03T17:35:55.687Z,13.88
2022-12-03T17:38:23.611Z,13.85
2022-12-03T17:40:51.464Z,13.70
2022-12-03T17:43:19.303Z,11.95
2022-12-03T17:45:47.172Z,12.40
2022-12-03T17:48:15.015Z,13.23
2022-12-03T17:50:42.985Z,13.18
2022-12-03T17:53:12.239Z,12.90
2022-12-03T17:55:44.736Z,14.38
2022-12-03T17:58:13.561Z,13.82
2022-12-03T18:00:41.681Z,13.00
2022-12-03T18:03:09.729Z,13.38
2022-12-03T18:05:37.611Z,15.93
2022-12-03T18:08:06.025Z,12.13
2022-12-03T18:10:35.257Z,14.48
2022-12-03T18:13:03.181Z,14.25
2022-12-03T18:15:31.258Z,14.05
2022-12-03T18:17:59.173Z,11.63
2022-12-03T18:20:27.093Z,14.77
2022-12-03T18:22:55.018Z,15.20
2022-12-03T18:25:22.965Z,14.18
2022-12-03T18:27:52.240Z,14.38
2022-12-03T18:30:20.286Z,13.95
2022-12-03T18:32:48.824Z,14.60
2022-12-03T18:35:16.893Z,14.05
2022-12-03T18:37:45.045Z,14.35
2022-12-03T18:40:18.522Z,16.17
2022-12-03T18:42:46.569Z,16.65
2022-12-03T18:45:16.879Z,14.75
2022-12-03T18:47:44.968Z,13.57
2022-12-03T18:50:13.635Z,14.68
2022-12-03T18:52:41.547Z,14.35
2022-12-03T18:55:11.994Z,14.82
2022-12-03T18:57:39.822Z,14.55
2022-12-03T19:00:13.469Z,15.45
2022-12-03T19:03:02.412Z,12.85
2022-12-03T19:05:30.989Z,11.50
2022-12-03T19:07:58.950Z,14.93
2022-12-03T19:10:27.327Z,16.48
2022-12-03T19:12:55.263Z,14.43
2022-12-03T19:15:24.017Z,13.65
2022-12-03T19:17:53.289Z,13.70
2022-12-03T19:20:21.134Z,12.30
2022-12-03T19:22:49.064Z,14.15
2022-12-03T19:25:17.494Z,13.38
2022-12-03T19:27:50.117Z,12.60
2022-12-03T19:30:18.720Z,12.52
2022-12-03T19:32:48.571Z,14.95
2022-12-03T19:35:18.218Z,11.15
2022-12-03T19:37:47.938Z,13.15
2022-12-03T19:40:16.187Z,14.35
2022-12-03T19:42:44.262Z,13.07
2022-12-03T19:45:12.662Z,14.02
2022-12-03T19:47:40.519Z,11.25
2022-12-03T19:50:09.782Z,15.00
2022-12-03T19:52:39.101Z,13.30
2022-12-03T19:55:07.552Z,13.77
2022-12-03T19:57:35.477Z,13.80
2022-12-03T20:00:03.797Z,14.18
2022-12-03T20:02:40.245Z,13.65
2022-12-03T20:05:08.396Z,12.07
2022-12-03T20:07:36.263Z,14.45
2022-12-03T20:10:06.917Z,12.00
2022-12-03T20:12:34.803Z,13.48
2022-12-03T20:15:02.749Z,14.27
2022-12-03T20:17:30.714Z,14.05
2022-12-03T20:19:58.508Z,12.80
2022-12-03T20:22:26.425Z,13.90
2022-12-03T20:24:54.437Z,13.27
2022-12-03T20:27:23.696Z,12.02
2022-12-03T20:29:51.645Z,13.85
2022-12-03T20:32:19.731Z,13.48
2022-12-03T20:34:48.838Z,14.43
2022-12-03T20:37:16.731Z,15.38
2022-12-03T20:39:44.575Z,15.07
2022-12-03T20:42:12.710Z,15.07
2022-12-03T20:44:42.201Z,14.05
2022-12-03T20:47:10.211Z,14.38
2022-12-03T20:49:38.992Z,14.75
2022-12-03T20:52:06.974Z,15.52
2022-12-03T20:54:34.874Z,16.92
2022-12-03T20:57:02.952Z,16.48
2022-12-03T20:59:31.717Z,14.82
2022-12-03T21:02:01.109Z,16.48
2022-12-03T21:04:29.234Z,15.30
2022-12-03T21:06:57.738Z,16.52
2022-12-03T21:09:25.690Z,14.38
2022-12-03T21:11:53.748Z,14.43
2022-12-03T21:14:21.913Z,16.95
2022-12-03T21:19:39.910Z,15.10
2022-12-03T21:22:08.278Z,17.48
2022-12-03T21:24:36.422Z,16.70
2022-12-03T21:27:04.677Z,18.58
2022-12-03T21:29:32.573Z,16.50
2022-12-03T21:32:00.577Z,15.13
2022-12-03T21:34:35.636Z,16.58
2022-12-03T21:37:05.738Z,19.05
2022-12-03T21:39:33.602Z,17.48
2022-12-03T21:42:19.243Z,15.77
2022-12-03T21:44:49.506Z,16.85
2022-12-03T21:47:17.552Z,16.25
2022-12-03T21:49:45.710Z,17.55
2022-12-03T21:52:15.025Z,16.23
2022-12-03T21:54:42.906Z,18.83
2022-12-03T21:57:10.751Z,16.10
2022-12-03T21:59:38.618Z,19.48
2022-12-03T22:02:06.627Z,17.38
2022-12-03T22:04:34.559Z,18.05
2022-12-03T22:07:02.516Z,14.27
2022-12-03T22:09:33.341Z,19.50
2022-12-03T22:12:01.653Z,17.52
2022-12-03T22:14:29.621Z,16.30
2022-12-03T22:16:57.488Z,20.02
2022-12-03T22:19:26.169Z,19.20
2022-12-03T22:21:54.050Z,20.52
2022-12-03T22:24:23.623Z,18.83
2022-12-03T22:26:54.628Z,18.88
2022-12-03T22:29:22.674Z,16.63
2022-12-03T22:31:50.542Z,17.48
2022-12-03T22:34:18.431Z,19.92
2022-12-03T22:36:46.232Z,17.92
2022-12-03T22:39:14.130Z,18.30
2022-12-03T22:41:41.971Z,10.82
2022-12-03T22:44:11.426Z,19.15
2022-12-03T22:46:39.431Z,17.85
2022-12-03T22:49:07.831Z,20.35
2022-12-03T22:51:36.277Z,14.82
2022-12-03T22:54:04.382Z,17.23
2022-12-03T22:56:32.539Z,17.27
2022-12-03T22:59:00.458Z,19.50
2022-12-03T23:01:31.273Z,17.65
2022-12-03T23:03:59.433Z,14.75
2022-12-03T23:06:27.960Z,18.45
2022-12-03T23:08:56.180Z,15.13
2022-12-03T23:11:24.131Z,18.50
2022-12-03T23:13:52.380Z,17.75
2022-12-03T23:16:22.286Z,17.33
2022-12-03T23:18:51.621Z,18.85
2022-12-03T23:21:28.506Z,18.55
2022-12-03T23:23:57.896Z,13.75
2022-12-03T23:26:25.770Z,17.23
2022-12-03T23:28:53.644Z,17.10
2022-12-03T23:31:23.057Z,16.63
2022-12-03T23:33:52.953Z,19.23
2022-12-03T23:36:21.627Z,17.85
2022-12-03T23:38:49.790Z,17.85
2022-12-03T23:41:19.495Z,18.30
2022-12-03T23:43:47.714Z,19.40
2022-12-03T23:46:17.018Z,17.65
2022-12-03T23:48:45.369Z,19.75
2022-12-03T23:51:16.732Z,19.60
2022-12-03T23:53:44.767Z,17.52
2022-12-03T23:56:15.198Z,18.55
2022-12-03T23:58:43.302Z,18.83
